createdAt,value
2018-10-01T00:00:53.311Z,4.00
2018-10-01T00:01:53.342Z,4.00
2018-10-01T00:02:53.322Z,4.00
2018-10-01T00:03:53.700Z,4.00
2018-10-01T00:04:53.381Z,4.00
2018-10-01T00:06:53.500Z,4.00
2018-10-01T00:08:53.551Z,4.00
2018-10-01T00:09:53.585Z,4.00
2018-10-01T00:10:53.871Z,4.00
2018-10-01T00:11:53.600Z,4.00
2018-10-01T00:12:53.677Z,4.00
2018-10-01T00:13:53.656Z,4.00
2018-10-01T00:14:53.733Z,4.00
2018-10-01T00:15:53.713Z,4.00
2018-10-01T00:16:53.795Z,4.00
2018-10-01T00:18:54.160Z,4.00
2018-10-01T00:19:53.840Z,4.00
2018-10-01T00:20:53.872Z,4.00
2018-10-01T00:21:53.952Z,4.00
2018-10-01T00:22:53.928Z,4.00
2018-10-01T00:23:54.008Z,4.00
2018-10-01T00:24:54.293Z,4.00
2018-10-01T00:25:54.074Z,4.00
2018-10-01T00:26:54.054Z,4.00
2018-10-01T00:27:54.130Z,4.00
2018-10-01T00:28:54.114Z,4.00
2018-10-01T00:29:54.150Z,4.00
2018-10-01T00:30:54.220Z,4.00
2018-10-01T00:31:54.503Z,4.00
2018-10-01T00:32:54.281Z,4.00
2018-10-01T00:33:54.312Z,0.00
2018-10-01T00:34:54.307Z,0.00
2018-10-01T00:35:54.332Z,0.00
2018-10-01T00:36:54.408Z,0.00
2018-10-01T00:37:54.395Z,0.00
2018-10-01T00:38:54.720Z,0.00
2018-10-01T00:39:54.453Z,0.00
2018-10-01T00:40:54.534Z,0.00
2018-10-01T00:41:54.513Z,0.00
2018-10-01T00:42:54.544Z,0.00
2018-10-01T00:43:54.626Z,0.00
2018-10-01T00:44:54.852Z,0.00
2018-10-01T00:45:54.936Z,0.00
2018-10-01T00:46:54.668Z,0.00
2018-10-01T00:47:54.697Z,0.00
2018-10-01T00:48:54.723Z,0.00
2018-10-01T00:49:54.899Z,0.00
2018-10-01T00:50:54.830Z,0.00
2018-10-01T00:51:54.812Z,0.00
2018-10-01T00:52:55.156Z,0.00
2018-10-01T00:53:54.924Z,0.00
2018-10-01T00:54:54.907Z,0.00
2018-10-01T00:55:54.990Z,0.00
2018-10-01T00:56:55.018Z,0.00
2018-10-01T00:57:54.995Z,0.00
2018-10-01T00:58:55.032Z,0.00
2018-10-01T00:59:55.409Z,0.00
2018-10-01T01:00:55.135Z,0.00
2018-10-01T01:01:55.119Z,0.00
2018-10-01T01:02:55.148Z,0.00
2018-10-01T01:03:55.185Z,0.00
2018-10-01T01:04:55.261Z,0.00
2018-10-01T01:05:55.290Z,0.00
2018-10-01T01:06:55.576Z,0.00
2018-10-01T01:07:55.300Z,0.00
2018-10-01T01:08:55.331Z,0.00
2018-10-01T01:09:55.413Z,0.00
2018-10-01T01:10:55.394Z,0.00
2018-10-01T01:11:55.478Z,0.00
2018-10-01T01:12:55.506Z,0.00
2018-10-01T01:13:55.782Z,0.00
2018-10-01T01:14:55.561Z,0.00
2018-10-01T01:15:55.594Z,0.00
2018-10-01T01:16:55.633Z,0.00
2018-10-01T01:17:55.607Z,0.00
2018-10-01T01:18:55.687Z,0.00
2018-10-01T01:19:55.673Z,0.00
2018-10-01T01:20:56.007Z,0.00
2018-10-01T01:21:55.781Z,0.00
2018-10-01T01:22:55.754Z,0.00
2018-10-01T01:23:55.787Z,0.00
2018-10-01T01:24:55.880Z,0.00
2018-10-01T01:25:55.905Z,0.00
2018-10-01T01:26:55.881Z,0.00
2018-10-01T01:27:56.214Z,0.00
2018-10-01T01:28:55.954Z,0.00
2018-10-01T01:29:55.983Z,0.00
2018-10-01T01:30:56.011Z,0.00
2018-10-01T01:31:56.032Z,0.00
2018-10-01T01:32:56.117Z,0.00
2018-10-01T01:34:56.181Z,0.00
2018-10-01T01:35:56.456Z,0.00
2018-10-01T01:36:56.193Z,0.00
2018-10-01T01:37:56.217Z,0.00
2018-10-01T01:38:56.253Z,0.00
2018-10-01T01:39:56.329Z,0.00
2018-10-01T01:40:56.359Z,0.00
2018-10-01T01:41:56.334Z,0.00
2018-10-01T01:42:56.719Z,0.00
2018-10-01T01:43:56.398Z,0.00
2018-10-01T01:44:56.434Z,0.00
2018-10-01T01:45:56.512Z,0.00
2018-10-01T01:47:56.522Z,0.00
2018-10-01T01:48:56.598Z,0.00
2018-10-01T01:49:56.901Z,0.00
2018-10-01T01:50:56.659Z,0.00
2018-10-01T01:51:56.690Z,0.00
2018-10-01T01:52:56.726Z,0.00
2018-10-01T01:53:56.753Z,0.00
2018-10-01T01:55:56.763Z,0.00
2018-10-01T01:56:57.145Z,0.00
2018-10-01T01:57:56.825Z,0.00
2018-10-01T01:58:56.937Z,0.00
2018-10-01T01:59:56.904Z,0.00
2018-10-01T02:00:56.975Z,0.00
2018-10-01T02:01:56.944Z,0.00
2018-10-01T02:02:56.978Z,0.00
2018-10-01T02:03:57.360Z,0.00
2018-10-01T02:04:57.095Z,0.00
2018-10-01T02:05:57.119Z,0.00
2018-10-01T02:06:57.099Z,0.00
2018-10-01T02:08:57.213Z,0.00
2018-10-01T02:09:57.487Z,0.00
2018-10-01T02:10:57.272Z,0.00
2018-10-01T02:12:57.333Z,0.00
2018-10-01T02:13:57.305Z,0.00
2018-10-01T02:14:57.347Z,0.00
2018-10-01T02:15:57.670Z,0.00
2018-10-01T02:16:57.467Z,0.00
2018-10-01T02:17:57.484Z,0.00
2018-10-01T02:18:57.466Z,0.00
2018-10-01T02:19:57.491Z,0.00
2018-10-01T02:20:57.521Z,0.00
2018-10-01T02:21:57.855Z,0.00
2018-10-01T02:22:57.634Z,0.00
2018-10-01T02:23:57.614Z,0.00
2018-10-01T02:24:57.702Z,0.00
2018-10-01T02:25:57.730Z,0.00
2018-10-01T02:26:57.717Z,0.00
2018-10-01T02:27:57.734Z,0.00
2018-10-01T02:28:58.068Z,0.00
2018-10-01T02:29:57.849Z,0.00
2018-10-01T02:30:57.827Z,0.00
2018-10-01T02:31:57.859Z,0.00
2018-10-01T02:32:57.887Z,0.00
2018-10-01T02:33:57.964Z,0.00
2018-10-01T02:34:57.958Z,0.00
2018-10-01T02:35:58.291Z,0.00
2018-10-01T02:36:58.061Z,0.00
2018-10-01T02:37:58.039Z,0.00
2018-10-01T02:38:58.121Z,0.00
2018-10-01T02:39:58.098Z,0.00
2018-10-01T02:40:58.131Z,0.00
2018-10-01T02:42:58.252Z,0.00
2018-10-01T02:43:58.575Z,0.00
2018-10-01T02:44:58.300Z,0.00
2018-10-01T02:45:58.277Z,0.00
2018-10-01T02:46:58.310Z,0.00
2018-10-01T02:47:58.389Z,0.00
2018-10-01T02:48:58.369Z,0.00
2018-10-01T02:49:58.399Z,0.00
2018-10-01T02:50:58.736Z,0.00
2018-10-01T02:51:58.460Z,0.00
2018-10-01T02:52:58.551Z,0.00
2018-10-01T02:53:58.570Z,0.00
2018-10-01T02:55:58.631Z,0.00
2018-10-01T02:56:58.661Z,0.00
2018-10-01T02:57:59.003Z,0.00
2018-10-01T02:58:58.671Z,0.00
2018-10-01T02:59:58.714Z,0.00
2018-10-01T03:00:58.733Z,0.00
2018-10-01T03:01:58.819Z,0.00
2018-10-01T03:02:58.795Z,0.00
2018-10-01T03:03:58.881Z,0.00
2018-10-01T03:04:59.159Z,0.00
2018-10-01T03:05:58.942Z,0.00
2018-10-01T03:06:58.968Z,0.00
2018-10-01T03:07:58.950Z,0.00
2018-10-01T03:08:58.977Z,0.00
2018-10-01T03:09:59.019Z,0.00
2018-10-01T03:12:59.405Z,0.00
2018-10-01T03:13:59.133Z,0.00
2018-10-01T03:14:59.169Z,0.00
2018-10-01T03:15:59.222Z,0.00
2018-10-01T03:16:59.270Z,0.00
2018-10-01T03:18:59.327Z,0.00
2018-10-01T03:19:59.624Z,0.00
2018-10-01T03:20:59.395Z,0.00
2018-10-01T03:21:59.417Z,0.00
2018-10-01T03:22:59.402Z,0.00
2018-10-01T03:23:59.479Z,0.00
2018-10-01T03:24:59.458Z,0.00
2018-10-01T03:25:59.545Z,0.00
2018-10-01T03:26:59.822Z,0.00
2018-10-01T03:27:59.576Z,0.00
2018-10-01T03:29:59.673Z,0.00
2018-10-01T03:30:59.650Z,0.00
2018-10-01T03:31:59.687Z,0.00
2018-10-01T03:32:59.710Z,0.00
2018-10-01T03:34:00.080Z,0.00
2018-10-01T03:35:00.125Z,0.00
2018-10-01T03:35:59.795Z,0.00
2018-10-01T03:36:59.875Z,0.00
2018-10-01T03:37:59.904Z,0.00
2018-10-01T03:38:59.888Z,0.00
2018-10-01T03:39:59.977Z,0.00
2018-10-01T03:41:00.248Z,0.00
2018-10-01T03:41:59.977Z,0.00
2018-10-01T03:43:00.058Z,0.00
2018-10-01T03:45:00.113Z,0.00
2018-10-01T03:46:00.091Z,0.00
2018-10-01T03:47:00.171Z,0.00
2018-10-01T03:48:00.453Z,0.00
2018-10-01T03:49:00.207Z,0.00
2018-10-01T03:50:00.308Z,0.00
2018-10-01T03:51:00.249Z,0.00
2018-10-01T03:53:00.355Z,0.00
2018-10-01T03:55:00.417Z,0.00
2018-10-01T03:56:00.699Z,0.00
2018-10-01T03:57:00.479Z,0.00
2018-10-01T03:58:00.451Z,0.00
2018-10-01T03:59:00.541Z,0.00
2018-10-01T04:00:00.516Z,0.00
2018-10-01T04:01:00.549Z,0.00
2018-10-01T04:02:00.624Z,0.00
2018-10-01T04:03:00.975Z,0.00
2018-10-01T04:04:00.689Z,0.00
2018-10-01T04:05:00.717Z,0.00
2018-10-01T04:07:00.733Z,0.00
2018-10-01T04:08:00.764Z,0.00
2018-10-01T04:09:00.884Z,0.00
2018-10-01T04:10:01.112Z,0.00
2018-10-01T04:11:00.853Z,0.00
2018-10-01T04:12:00.890Z,0.00
2018-10-01T04:14:00.990Z,0.00
2018-10-01T04:16:00.998Z,0.00
2018-10-01T04:17:01.329Z,0.00
2018-10-01T04:18:01.108Z,0.00
2018-10-01T04:19:01.099Z,0.00
2018-10-01T04:20:01.126Z,0.00
2018-10-01T04:22:01.178Z,0.00
2018-10-01T04:23:01.262Z,0.00
2018-10-01T04:24:01.550Z,0.00
2018-10-01T04:25:01.322Z,0.00
2018-10-01T04:26:01.847Z,0.00
2018-10-01T04:27:01.324Z,0.00
2018-10-01T04:28:01.379Z,0.00
2018-10-01T04:29:01.438Z,0.00
2018-10-01T04:30:01.426Z,0.00
2018-10-01T04:31:01.504Z,0.00
2018-10-01T04:32:01.476Z,0.00
2018-10-01T04:35:01.637Z,0.00
2018-10-01T04:36:01.653Z,0.00
2018-10-01T04:37:01.990Z,0.00
2018-10-01T04:38:01.714Z,0.00
2018-10-01T04:39:01.687Z,0.00
2018-10-01T04:40:01.715Z,0.00
2018-10-01T04:42:01.835Z,0.00
2018-10-01T04:43:01.862Z,0.00
2018-10-01T04:44:02.143Z,0.00
2018-10-01T04:45:01.929Z,0.00
2018-10-01T04:46:01.948Z,0.00
2018-10-01T04:47:01.928Z,0.00
2018-10-01T04:48:01.957Z,0.00
2018-10-01T04:49:02.035Z,0.00
2018-10-01T04:50:02.017Z,0.00
2018-10-01T04:51:02.096Z,0.00
2018-10-01T04:52:02.085Z,0.00
2018-10-01T04:53:02.107Z,0.00
2018-10-01T04:54:02.140Z,0.00
2018-10-01T04:55:02.166Z,0.00
2018-10-01T04:56:02.250Z,0.00
2018-10-01T04:57:02.530Z,0.00
2018-10-01T04:58:02.333Z,0.00
2018-10-01T04:59:02.349Z,0.00
2018-10-01T05:00:02.320Z,0.00
2018-10-01T05:02:02.427Z,0.00
2018-10-01T05:03:02.455Z,0.00
2018-10-01T05:04:02.442Z,0.00
2018-10-01T05:05:02.520Z,0.00
2018-10-01T05:06:02.606Z,0.00
2018-10-01T05:08:02.622Z,0.00
2018-10-01T05:09:02.945Z,0.00
2018-10-01T05:10:02.675Z,0.00
2018-10-01T05:11:02.651Z,0.00
2018-10-01T05:12:02.683Z,0.00
2018-10-01T05:13:02.762Z,0.00
2018-10-01T05:14:02.791Z,0.00
2018-10-01T05:15:02.823Z,4.00
2018-10-01T05:16:02.800Z,4.00
2018-10-01T05:18:02.855Z,0.00
2018-10-01T05:19:02.938Z,4.00
2018-10-01T05:20:02.967Z,4.00
2018-10-01T05:21:03.049Z,8.00
2018-10-01T05:22:03.278Z,8.00
2018-10-01T05:23:03.006Z,4.00
2018-10-01T05:24:03.092Z,8.00
2018-10-01T05:25:03.120Z,8.00
2018-10-01T05:26:03.106Z,12.00
2018-10-01T05:27:03.273Z,8.00
2018-10-01T05:28:03.157Z,12.00
2018-10-01T05:29:03.293Z,12.00
2018-10-01T05:30:03.263Z,12.00
2018-10-01T05:31:03.277Z,16.00
2018-10-01T05:32:03.284Z,20.00
2018-10-01T05:33:03.312Z,20.00
2018-10-01T05:34:03.388Z,20.00
2018-10-01T05:35:03.670Z,24.00
2018-10-01T05:37:03.476Z,28.00
2018-10-01T05:38:03.454Z,28.00
2018-10-01T05:39:03.536Z,28.00
2018-10-01T05:40:03.514Z,32.00
2018-10-01T05:41:03.600Z,32.00
2018-10-01T05:42:03.875Z,36.00
2018-10-01T05:43:03.610Z,32.00
2018-10-01T05:44:03.683Z,36.00
2018-10-01T05:45:03.720Z,40.00
2018-10-01T05:46:03.699Z,48.00
2018-10-01T05:47:03.774Z,60.00
2018-10-01T05:48:03.759Z,68.00
2018-10-01T05:49:04.114Z,84.00
2018-10-01T05:50:03.826Z,92.00
2018-10-01T05:51:03.850Z,108.00
2018-10-01T05:52:03.930Z,116.00
2018-10-01T05:53:03.976Z,128.00
2018-10-01T05:54:03.997Z,136.00
2018-10-01T05:55:04.313Z,144.00
2018-10-01T05:56:04.000Z,152.00
2018-10-01T05:57:04.088Z,160.00
2018-10-01T05:58:04.117Z,168.00
2018-10-01T05:59:04.137Z,168.00
2018-10-01T06:00:04.128Z,172.00
2018-10-01T06:01:04.493Z,168.00
2018-10-01T06:02:04.172Z,176.00
2018-10-01T06:03:04.204Z,192.00
2018-10-01T06:04:04.286Z,208.00
2018-10-01T06:05:04.266Z,224.00
2018-10-01T06:06:04.298Z,228.00
2018-10-01T06:07:04.327Z,220.00
2018-10-01T06:08:04.403Z,220.00
2018-10-01T06:09:04.438Z,224.00
2018-10-01T06:10:04.414Z,244.00
2018-10-01T06:12:04.525Z,288.00
2018-10-01T06:13:04.552Z,300.00
2018-10-01T06:14:04.540Z,292.00
2018-10-01T06:15:04.562Z,268.00
2018-10-01T06:16:04.601Z,240.00
2018-10-01T06:17:04.624Z,228.00
2018-10-01T06:18:04.715Z,212.00
2018-10-01T06:19:04.982Z,204.00
2018-10-01T06:20:04.710Z,220.00
2018-10-01T06:21:04.797Z,248.00
2018-10-01T06:22:04.821Z,320.00
2018-10-01T06:23:04.806Z,404.00
2018-10-01T06:24:04.883Z,452.00
2018-10-01T06:25:04.942Z,456.00
2018-10-01T06:26:05.195Z,460.00
2018-10-01T06:27:04.924Z,440.00
2018-10-01T06:28:04.953Z,436.00
2018-10-01T06:29:05.037Z,456.00
2018-10-01T06:30:05.068Z,476.00
2018-10-01T06:31:05.039Z,468.00
2018-10-01T06:32:05.070Z,488.00
2018-10-01T06:33:05.104Z,504.00
2018-10-01T06:34:05.137Z,516.00
2018-10-01T06:35:05.219Z,528.00
2018-10-01T06:36:05.212Z,548.00
2018-10-01T06:37:05.226Z,584.00
2018-10-01T06:38:05.277Z,612.00
2018-10-01T06:39:05.334Z,600.00
2018-10-01T06:40:05.366Z,560.00
2018-10-01T06:41:05.397Z,540.00
2018-10-01T06:42:05.455Z,560.00
2018-10-01T06:43:05.398Z,596.00
2018-10-01T06:44:05.480Z,644.00
2018-10-01T06:45:05.765Z,712.00
2018-10-01T06:46:05.547Z,772.00
2018-10-01T06:47:05.519Z,856.00
2018-10-01T06:48:05.554Z,888.00
2018-10-01T06:49:05.595Z,888.00
2018-10-01T06:51:05.732Z,928.00
2018-10-01T06:52:06.019Z,908.00
2018-10-01T06:53:05.756Z,896.00
2018-10-01T06:54:05.730Z,820.00
2018-10-01T06:55:05.762Z,772.00
2018-10-01T06:56:05.844Z,760.00
2018-10-01T06:57:05.873Z,744.00
2018-10-01T06:58:06.151Z,728.00
2018-10-01T06:59:05.880Z,708.00
2018-10-01T07:00:05.913Z,684.00
2018-10-01T07:01:05.949Z,680.00
2018-10-01T07:02:06.018Z,676.00
2018-10-01T07:03:06.005Z,636.00
2018-10-01T07:04:06.034Z,628.00
2018-10-01T07:05:06.360Z,660.00
2018-10-01T07:06:06.139Z,740.00
2018-10-01T07:07:06.122Z,752.00
2018-10-01T07:08:06.147Z,808.00
2018-10-01T07:09:06.243Z,812.00
2018-10-01T07:10:06.629Z,812.00
2018-10-01T07:11:06.282Z,816.00
2018-10-01T07:12:06.569Z,828.00
2018-10-01T07:13:06.357Z,832.00
2018-10-01T07:14:06.384Z,828.00
2018-10-01T07:15:06.414Z,816.00
2018-10-01T07:16:06.393Z,824.00
2018-10-01T07:17:06.511Z,828.00
2018-10-01T07:18:06.503Z,836.00
2018-10-01T07:19:06.787Z,836.00
2018-10-01T07:20:06.588Z,832.00
2018-10-01T07:21:06.550Z,840.00
2018-10-01T07:22:06.628Z,852.00
2018-10-01T07:23:06.692Z,860.00
2018-10-01T07:24:06.628Z,872.00
2018-10-01T07:25:06.713Z,892.00
2018-10-01T07:26:06.744Z,952.00
2018-10-01T07:27:06.717Z,1032.00
2018-10-01T07:28:06.751Z,1064.00
2018-10-01T07:29:06.829Z,1076.00
2018-10-01T07:30:06.806Z,1124.00
2018-10-01T07:31:06.892Z,1184.00
2018-10-01T07:32:07.169Z,1124.00
2018-10-01T07:33:06.948Z,996.00
2018-10-01T07:34:07.092Z,1028.00
2018-10-01T07:35:07.208Z,1016.00
2018-10-01T07:36:07.252Z,856.00
2018-10-01T07:37:07.227Z,964.00
2018-10-01T07:38:07.317Z,804.00
2018-10-01T07:39:07.426Z,944.00
2018-10-01T07:40:07.159Z,756.00
2018-10-01T07:41:07.147Z,740.00
2018-10-01T07:42:07.221Z,716.00
2018-10-01T07:43:07.256Z,700.00
2018-10-01T07:44:07.233Z,724.00
2018-10-01T07:45:07.470Z,712.00
2018-10-01T07:46:07.598Z,724.00
2018-10-01T07:47:07.341Z,912.00
2018-10-01T07:48:07.399Z,752.00
2018-10-01T07:49:07.458Z,896.00
2018-10-01T07:50:07.493Z,932.00
2018-10-01T07:51:07.631Z,940.00
2018-10-01T07:52:07.525Z,940.00
2018-10-01T07:53:07.506Z,940.00
2018-10-01T07:54:07.581Z,936.00
2018-10-01T07:55:07.609Z,944.00
2018-10-01T07:56:07.598Z,960.00
2018-10-01T07:57:07.748Z,976.00
2018-10-01T07:58:07.700Z,1000.00
2018-10-01T07:59:07.983Z,988.00
2018-10-01T08:00:07.943Z,980.00
2018-10-01T08:01:07.752Z,948.00
2018-10-01T08:02:07.836Z,948.00
2018-10-01T08:03:07.859Z,944.00
2018-10-01T08:04:07.883Z,948.00
2018-10-01T08:05:08.168Z,968.00
2018-10-01T08:06:07.888Z,996.00
2018-10-01T08:07:07.919Z,1008.00
2018-10-01T08:08:08.027Z,1004.00
2018-10-01T08:09:07.989Z,984.00
2018-10-01T08:10:08.067Z,996.00
2018-10-01T08:11:08.340Z,1036.00
2018-10-01T08:12:08.080Z,1100.00
2018-10-01T08:13:08.153Z,1176.00
2018-10-01T08:15:08.214Z,1256.00
2018-10-01T08:16:08.200Z,1252.00
2018-10-01T08:17:08.276Z,1252.00
2018-10-01T08:18:08.258Z,1220.00
2018-10-01T08:19:08.330Z,1168.00
2018-10-01T08:20:08.377Z,1148.00
2018-10-01T08:21:08.396Z,1184.00
2018-10-01T08:22:08.425Z,1200.00
2018-10-01T08:23:08.404Z,1148.00
2018-10-01T08:24:08.484Z,1092.00
2018-10-01T08:25:08.523Z,1064.00
2018-10-01T08:26:08.536Z,1060.00
2018-10-01T08:27:08.527Z,1064.00
2018-10-01T08:28:08.555Z,1072.00
2018-10-01T08:29:08.642Z,1056.00
2018-10-01T08:30:08.692Z,1056.00
2018-10-01T08:31:08.652Z,1052.00
2018-10-01T08:32:08.696Z,1048.00
2018-10-01T08:33:08.753Z,1048.00
2018-10-01T08:34:08.787Z,1048.00
2018-10-01T08:35:08.860Z,1056.00
2018-10-01T08:36:09.105Z,1064.00
2018-10-01T08:37:08.879Z,1088.00
2018-10-01T08:38:08.941Z,1104.00
2018-10-01T08:39:08.892Z,1104.00
2018-10-01T08:40:08.924Z,1132.00
2018-10-01T08:41:09.063Z,1360.00
2018-10-01T08:42:09.323Z,1392.00
2018-10-01T08:43:09.062Z,1372.00
2018-10-01T08:44:09.095Z,1264.00
2018-10-01T08:45:09.120Z,1144.00
2018-10-01T08:46:09.149Z,1196.00
2018-10-01T08:47:09.173Z,1020.00
2018-10-01T08:48:09.207Z,1060.00
2018-10-01T08:49:09.236Z,1008.00
2018-10-01T08:50:09.313Z,964.00
2018-10-01T08:51:09.323Z,1120.00
2018-10-01T08:52:09.331Z,1016.00
2018-10-01T08:53:09.388Z,1084.00
2018-10-01T08:54:09.388Z,960.00
2018-10-01T08:55:09.439Z,980.00
2018-10-01T08:56:09.476Z,1104.00
2018-10-01T08:57:09.503Z,1156.00
2018-10-01T08:58:09.523Z,1152.00
2018-10-01T08:59:09.609Z,1160.00
2018-10-01T09:00:09.602Z,1092.00
2018-10-01T09:01:09.679Z,1200.00
2018-10-01T09:02:09.658Z,1300.00
2018-10-01T09:03:09.670Z,1376.00
2018-10-01T09:04:09.704Z,1496.00
2018-10-01T09:05:09.754Z,1624.00
2018-10-01T09:06:10.069Z,1684.00
2018-10-01T09:07:09.789Z,1340.00
2018-10-01T09:08:09.852Z,1436.00
2018-10-01T09:09:09.795Z,1384.00
2018-10-01T09:10:09.824Z,1556.00
2018-10-01T09:11:09.992Z,1516.00
2018-10-01T09:12:09.913Z,1544.00
2018-10-01T09:13:10.012Z,1216.00
2018-10-01T09:14:10.045Z,1472.00
2018-10-01T09:15:10.067Z,1540.00
2018-10-01T09:16:10.065Z,1488.00
2018-10-01T09:20:10.211Z,2044.00
2018-10-01T09:21:10.266Z,1256.00
2018-10-01T09:22:10.268Z,1472.00
2018-10-01T09:23:10.276Z,1212.00
2018-10-01T09:24:10.400Z,1424.00
2018-10-01T09:25:10.351Z,1444.00
2018-10-01T09:26:10.730Z,1688.00
2018-10-01T09:27:10.341Z,1736.00
2018-10-01T09:28:10.397Z,2220.00
2018-10-01T09:29:10.531Z,2900.00
2018-10-01T09:30:10.492Z,3056.00
2018-10-01T09:31:10.628Z,2520.00
2018-10-01T09:32:10.652Z,1852.00
2018-10-01T09:33:10.586Z,1608.00
2018-10-01T09:34:10.610Z,2248.00
2018-10-01T09:35:10.741Z,2672.00
2018-10-01T09:36:10.673Z,2920.00
2018-10-01T09:37:10.734Z,2568.00
2018-10-01T09:38:11.092Z,2100.00
2018-10-01T09:39:10.777Z,2700.00
2018-10-01T09:40:10.808Z,2308.00
2018-10-01T09:41:10.816Z,2072.00
2018-10-01T09:42:10.927Z,2144.00
2018-10-01T09:43:10.824Z,1928.00
2018-10-01T09:44:10.896Z,2312.00
2018-10-01T09:45:11.187Z,3024.00
2018-10-01T09:46:11.002Z,3012.00
2018-10-01T09:47:10.945Z,3372.00
2018-10-01T09:48:10.983Z,2708.00
2018-10-01T09:49:11.065Z,2144.00
2018-10-01T09:50:11.100Z,1912.00
2018-10-01T09:51:11.117Z,1808.00
2018-10-01T09:52:11.557Z,2072.00
2018-10-01T09:53:11.132Z,2596.00
2018-10-01T09:54:11.166Z,2860.00
2018-10-01T09:55:11.185Z,2880.00
2018-10-01T09:56:11.329Z,2704.00
2018-10-01T09:57:11.296Z,2524.00
2018-10-01T09:58:11.338Z,2156.00
2018-10-01T09:59:11.612Z,2136.00
2018-10-01T10:00:11.340Z,2140.00
2018-10-01T10:01:11.419Z,2204.00
2018-10-01T10:02:11.406Z,2184.00
2018-10-01T10:03:11.482Z,1768.00
2018-10-01T10:04:11.660Z,1616.00
2018-10-01T10:05:11.494Z,1300.00
2018-10-01T10:06:11.827Z,1228.00
2018-10-01T10:07:11.555Z,1088.00
2018-10-01T10:09:11.666Z,696.00
2018-10-01T10:10:11.788Z,660.00
2018-10-01T10:11:11.677Z,736.00
2018-10-01T10:12:11.766Z,960.00
2018-10-01T10:13:11.787Z,1372.00
2018-10-01T10:14:11.826Z,1700.00
2018-10-01T10:15:11.801Z,1732.00
2018-10-01T10:16:11.979Z,1840.00
2018-10-01T10:17:11.866Z,1680.00
2018-10-01T10:18:11.941Z,1504.00
2018-10-01T10:19:11.973Z,1428.00
2018-10-01T10:21:12.033Z,2028.00
2018-10-01T10:22:12.106Z,2120.00
2018-10-01T10:23:12.094Z,2080.00
2018-10-01T10:24:12.075Z,2220.00
2018-10-01T10:25:12.405Z,2216.00
2018-10-01T10:26:12.158Z,1796.00
2018-10-01T10:27:12.232Z,1716.00
2018-10-01T10:28:12.363Z,1772.00
2018-10-01T10:29:12.281Z,1740.00
2018-10-01T10:30:12.271Z,1972.00
2018-10-01T10:31:12.338Z,2780.00
2018-10-01T10:32:12.455Z,3208.00
2018-10-01T10:33:12.400Z,2620.00
2018-10-01T10:34:12.483Z,1996.00
2018-10-01T10:35:12.418Z,1832.00
2018-10-01T10:36:12.796Z,2032.00
2018-10-01T10:37:12.785Z,1900.00
2018-10-01T10:38:12.668Z,1352.00
2018-10-01T10:39:12.550Z,1456.00
2018-10-01T10:40:12.639Z,1464.00
2018-10-01T10:41:12.648Z,1516.00
2018-10-01T10:42:12.684Z,1552.00
2018-10-01T10:43:12.969Z,1668.00
2018-10-01T10:44:12.799Z,1972.00
2018-10-01T10:45:12.830Z,2364.00
2018-10-01T10:46:12.802Z,2204.00
2018-10-01T10:47:12.784Z,1908.00
2018-10-01T10:48:12.900Z,1588.00
2018-10-01T10:49:12.905Z,1644.00
2018-10-01T10:50:13.277Z,1720.00
2018-10-01T10:51:12.961Z,1684.00
2018-10-01T10:52:12.993Z,2040.00
2018-10-01T10:53:12.970Z,2308.00
2018-10-01T10:54:12.999Z,2780.00
2018-10-01T10:55:13.032Z,3044.00
2018-10-01T10:56:13.210Z,2972.00
2018-10-01T10:57:13.142Z,2528.00
2018-10-01T10:58:13.172Z,2656.00
2018-10-01T10:59:13.154Z,3200.00
2018-10-01T11:00:13.232Z,3480.00
2018-10-01T11:01:13.214Z,3508.00
2018-10-01T11:02:13.327Z,3252.00
2018-10-01T11:03:13.576Z,3096.00
2018-10-01T11:04:13.307Z,3616.00
2018-10-01T11:05:13.385Z,3160.00
2018-10-01T11:06:13.415Z,2748.00
2018-10-01T11:07:13.524Z,2472.00
2018-10-01T11:08:13.481Z,2272.00
2018-10-01T11:09:13.517Z,2820.00
2018-10-01T11:10:13.496Z,3420.00
2018-10-01T11:11:13.570Z,3568.00
2018-10-01T11:12:13.555Z,2716.00
2018-10-01T11:13:13.585Z,2216.00
2018-10-01T11:14:13.914Z,2012.00
2018-10-01T11:15:13.848Z,1976.00
2018-10-01T11:16:14.032Z,1864.00
2018-10-01T11:17:13.766Z,1820.00
2018-10-01T11:18:13.800Z,1960.00
2018-10-01T11:19:14.031Z,2060.00
2018-10-01T11:20:13.850Z,1796.00
2018-10-01T11:21:13.919Z,2184.00
2018-10-01T11:22:14.244Z,2884.00
2018-10-01T11:23:14.081Z,3208.00
2018-10-01T11:24:13.926Z,3124.00
2018-10-01T11:25:13.988Z,2756.00
2018-10-01T11:26:14.038Z,2568.00
2018-10-01T11:27:14.203Z,2408.00
2018-10-01T11:28:14.108Z,2336.00
2018-10-01T11:29:14.082Z,2500.00
2018-10-01T11:30:14.114Z,2444.00
2018-10-01T11:31:14.194Z,2324.00
2018-10-01T11:32:14.176Z,2364.00
2018-10-01T11:33:14.412Z,2520.00
2018-10-01T11:34:14.559Z,2768.00
2018-10-01T11:35:14.468Z,2988.00
2018-10-01T11:36:14.359Z,3684.00
2018-10-01T11:37:14.381Z,4888.00
2018-10-01T11:38:14.408Z,5368.00
2018-10-01T11:39:14.457Z,5004.00
2018-10-01T11:40:14.420Z,4224.00
2018-10-01T11:41:14.809Z,3400.00
2018-10-01T11:42:14.535Z,2432.00
2018-10-01T11:43:14.568Z,1916.00
2018-10-01T11:44:14.697Z,1520.00
2018-10-01T11:45:14.707Z,1276.00
2018-10-01T11:46:14.658Z,1036.00
2018-10-01T11:47:14.693Z,972.00
2018-10-01T11:48:15.015Z,992.00
2018-10-01T11:49:14.756Z,976.00
2018-10-01T11:50:14.735Z,968.00
2018-10-01T11:51:14.949Z,1012.00
2018-10-01T11:52:14.832Z,1072.00
2018-10-01T11:53:14.888Z,1140.00
2018-10-01T11:54:14.879Z,1272.00
2018-10-01T11:55:15.239Z,1364.00
2018-10-01T11:56:14.920Z,1380.00
2018-10-01T11:57:15.071Z,1492.00
2018-10-01T11:58:15.035Z,1620.00
2018-10-01T11:59:15.016Z,1680.00
2018-10-01T12:00:15.092Z,1672.00
2018-10-01T12:01:15.128Z,1632.00
2018-10-01T12:02:15.410Z,1636.00
2018-10-01T12:03:15.227Z,1688.00
2018-10-01T12:04:15.216Z,1672.00
2018-10-01T12:05:15.201Z,1668.00
2018-10-01T12:06:15.279Z,1576.00
2018-10-01T12:07:15.265Z,1340.00
2018-10-01T12:08:15.345Z,1232.00
2018-10-01T12:09:15.684Z,1432.00
2018-10-01T12:10:15.439Z,1736.00
2018-10-01T12:11:15.384Z,1940.00
2018-10-01T12:12:15.480Z,2144.00
2018-10-01T12:13:15.505Z,2400.00
2018-10-01T12:15:15.715Z,2896.00
2018-10-01T12:16:15.918Z,2920.00
2018-10-01T12:17:15.578Z,2808.00
2018-10-01T12:18:15.675Z,2956.00
2018-10-01T12:19:15.712Z,3192.00
2018-10-01T12:20:15.665Z,3164.00
2018-10-01T12:21:15.818Z,3124.00
2018-10-01T12:22:15.821Z,3104.00
2018-10-01T12:23:15.805Z,2968.00
2018-10-01T12:24:16.202Z,2704.00
2018-10-01T12:25:15.869Z,2560.00
2018-10-01T12:26:15.903Z,2576.00
2018-10-01T12:27:15.982Z,2572.00
2018-10-01T12:28:15.965Z,2612.00
2018-10-01T12:29:16.034Z,2664.00
2018-10-01T12:30:16.019Z,2692.00
2018-10-01T12:31:16.004Z,2780.00
2018-10-01T12:32:16.035Z,2876.00
2018-10-01T12:33:16.258Z,2836.00
2018-10-01T12:34:16.151Z,2740.00
2018-10-01T12:35:16.124Z,2784.00
2018-10-01T12:36:16.207Z,2948.00
2018-10-01T12:37:16.242Z,2976.00
2018-10-01T12:38:16.219Z,2964.00
2018-10-01T12:39:16.390Z,2984.00
2018-10-01T12:40:16.311Z,3104.00
2018-10-01T12:41:16.669Z,3368.00
2018-10-01T12:42:16.393Z,3840.00
2018-10-01T12:43:16.430Z,4352.00
2018-10-01T12:44:16.410Z,4844.00
2018-10-01T12:45:16.566Z,5164.00
2018-10-01T12:46:16.520Z,5196.00
2018-10-01T12:47:16.834Z,4968.00
2018-10-01T12:48:16.527Z,4560.00
2018-10-01T12:49:16.563Z,4192.00
2018-10-01T12:50:16.685Z,4088.00
2018-10-01T12:51:16.721Z,4160.00
2018-10-01T12:52:16.655Z,4676.00
2018-10-01T12:53:16.734Z,4344.00
2018-10-01T12:54:16.716Z,3412.00
2018-10-01T12:55:16.801Z,2924.00
2018-10-01T12:57:16.934Z,2400.00
2018-10-01T12:58:16.894Z,2840.00
2018-10-01T12:59:16.934Z,2412.00
2018-10-01T13:00:17.203Z,1944.00
2018-10-01T13:01:16.982Z,1676.00
2018-10-01T13:02:17.011Z,1516.00
2018-10-01T13:03:16.993Z,1344.00
2018-10-01T13:04:17.075Z,1052.00
2018-10-01T13:05:17.142Z,780.00
2018-10-01T13:06:17.168Z,1036.00
2018-10-01T13:07:17.420Z,1152.00
2018-10-01T13:08:17.501Z,984.00
2018-10-01T13:09:17.229Z,972.00
2018-10-01T13:10:17.260Z,1084.00
2018-10-01T13:11:17.247Z,1348.00
2018-10-01T13:12:17.359Z,1772.00
2018-10-01T13:13:17.310Z,2456.00
2018-10-01T13:14:17.636Z,3296.00
2018-10-01T13:15:17.367Z,4228.00
2018-10-01T13:16:17.400Z,5516.00
2018-10-01T13:17:17.479Z,7152.00